sensor_id;sensor_type;location;lat;lon;timestamp;P1;durP1;ratioP1;P2;durP2;ratioP2
62927;SDS011;51070;52.236;-0.892;2023-07-13T00:02:10;6.80;;;3.40;;
62927;SDS011;51070;52.236;-0.892;2023-07-13T00:04:35;7.50;;;3.20;;
62927;SDS011;51070;52.236;-0.892;2023-07-13T00:07:01;6.60;;;2.90;;
62927;SDS011;51070;52.236;-0.892;2023-07-13T00:09:26;16.20;;;7.60;;
62927;SDS011;51070;52.236;-0.892;2023-07-13T00:11:56;6.20;;;3.90;;
62927;SDS011;51070;52.236;-0.892;2023-07-13T00:14:23;5.40;;;2.20;;
62927;SDS011;51070;52.236;-0.892;2023-07-13T00:16:50;5.80;;;2.80;;
62927;SDS011;51070;52.236;-0.892;2023-07-13T00:19:16;7.60;;;3.10;;
62927;SDS011;51070;52.236;-0.892;2023-07-13T00:21:41;5.00;;;2.60;;
62927;SDS011;51070;52.236;-0.892;2023-07-13T00:24:08;5.10;;;2.70;;
62927;SDS011;51070;52.236;-0.892;2023-07-13T00:26:38;6.30;;;2.70;;
62927;SDS011;51070;52.236;-0.892;2023-07-13T00:29:04;4.90;;;2.50;;
62927;SDS011;51070;52.236;-0.892;2023-07-13T00:31:34;7.20;;;2.70;;
62927;SDS011;51070;52.236;-0.892;2023-07-13T00:34:01;5.90;;;2.10;;
62927;SDS011;51070;52.236;-0.892;2023-07-13T00:36:27;5.60;;;2.40;;
62927;SDS011;51070;52.236;-0.892;2023-07-13T00:38:52;3.90;;;2.20;;
62927;SDS011;51070;52.236;-0.892;2023-07-13T00:41:18;7.40;;;3.30;;
62927;SDS011;51070;52.236;-0.892;2023-07-13T00:43:44;6.70;;;2.80;;
62927;SDS011;51070;52.236;-0.892;2023-07-13T00:46:16;3.90;;;2.80;;
62927;SDS011;51070;52.236;-0.892;2023-07-13T00:49:05;5.60;;;2.60;;
62927;SDS011;51070;52.236;-0.892;2023-07-13T00:51:35;4.70;;;3.00;;
62927;SDS011;51070;52.236;-0.892;2023-07-13T00:54:06;5.40;;;2.50;;
62927;SDS011;51070;52.236;-0.892;2023-07-13T00:56:34;6.00;;;2.30;;
62927;SDS011;51070;52.236;-0.892;2023-07-13T00:59:02;4.90;;;2.20;;
62927;SDS011;51070;52.236;-0.892;2023-07-13T01:01:30;6.70;;;2.40;;
62927;SDS011;51070;52.236;-0.892;2023-07-13T01:03:56;7.40;;;2.70;;
62927;SDS011;51070;52.236;-0.892;2023-07-13T01:06:22;10.90;;;2.90;;
62927;SDS011;51070;52.236;-0.892;2023-07-13T01:08:47;5.40;;;2.60;;
62927;SDS011;51070;52.236;-0.892;2023-07-13T01:11:16;6.80;;;2.70;;
62927;SDS011;51070;52.236;-0.892;2023-07-13T01:13:45;5.60;;;2.50;;
62927;SDS011;51070;52.236;-0.892;2023-07-13T01:16:15;6.40;;;3.30;;
62927;SDS011;51070;52.236;-0.892;2023-07-13T01:18:48;5.00;;;2.70;;
62927;SDS011;51070;52.236;-0.892;2023-07-13T01:21:13;6.00;;;2.60;;
62927;SDS011;51070;52.236;-0.892;2023-07-13T01:23:38;5.10;;;2.30;;
62927;SDS011;51070;52.236;-0.892;2023-07-13T01:26:04;5.50;;;2.60;;
62927;SDS011;51070;52.236;-0.892;2023-07-13T01:28:29;5.20;;;2.20;;
62927;SDS011;51070;52.236;-0.892;2023-07-13T01:30:57;5.30;;;2.10;;
62927;SDS011;51070;52.236;-0.892;2023-07-13T01:33:24;7.30;;;2.50;;
62927;SDS011;51070;52.236;-0.892;2023-07-13T01:35:50;4.90;;;2.90;;
62927;SDS011;51070;52.236;-0.892;2023-07-13T01:38:17;6.70;;;2.70;;
62927;SDS011;51070;52.236;-0.892;2023-07-13T01:40:43;6.50;;;3.00;;
62927;SDS011;51070;52.236;-0.892;2023-07-13T01:43:09;7.30;;;2.70;;
62927;SDS011;51070;52.236;-0.892;2023-07-13T01:45:35;4.10;;;2.60;;
62927;SDS011;51070;52.236;-0.892;2023-07-13T01:48:01;6.30;;;3.10;;
62927;SDS011;51070;52.236;-0.892;2023-07-13T01:50:26;6.90;;;2.80;;
62927;SDS011;51070;52.236;-0.892;2023-07-13T01:52:52;8.60;;;2.40;;
62927;SDS011;51070;52.236;-0.892;2023-07-13T01:55:18;5.30;;;2.50;;
62927;SDS011;51070;52.236;-0.892;2023-07-13T01:57:45;4.80;;;2.50;;
62927;SDS011;51070;52.236;-0.892;2023-07-13T02:00:12;7.70;;;2.40;;
62927;SDS011;51070;52.236;-0.892;2023-07-13T02:02:38;4.90;;;2.40;;
62927;SDS011;51070;52.236;-0.892;2023-07-13T02:05:04;3.60;;;2.40;;
62927;SDS011;51070;52.236;-0.892;2023-07-13T02:07:30;6.20;;;2.90;;
62927;SDS011;51070;52.236;-0.892;2023-07-13T02:09:56;3.90;;;2.40;;
62927;SDS011;51070;52.236;-0.892;2023-07-13T02:12:21;5.10;;;2.70;;
62927;SDS011;51070;52.236;-0.892;2023-07-13T02:14:46;6.50;;;2.90;;
62927;SDS011;51070;52.236;-0.892;2023-07-13T02:17:12;9.10;;;3.50;;
62927;SDS011;51070;52.236;-0.892;2023-07-13T02:19:37;4.10;;;2.70;;
62927;SDS011;51070;52.236;-0.892;2023-07-13T02:22:02;6.20;;;2.80;;
62927;SDS011;51070;52.236;-0.892;2023-07-13T02:24:28;4.30;;;1.90;;
62927;SDS011;51070;52.236;-0.892;2023-07-13T02:26:54;4.70;;;2.40;;
62927;SDS011;51070;52.236;-0.892;2023-07-13T02:29:19;4.60;;;2.30;;
62927;SDS011;51070;52.236;-0.892;2023-07-13T02:31:45;7.50;;;3.20;;
62927;SDS011;51070;52.236;-0.892;2023-07-13T02:34:10;3.70;;;2.20;;
62927;SDS011;51070;52.236;-0.892;2023-07-13T02:36:35;5.80;;;2.70;;
62927;SDS011;51070;52.236;-0.892;2023-07-13T02:39:02;8.40;;;3.00;;
62927;SDS011;51070;52.236;-0.892;2023-07-13T02:41:28;5.70;;;3.70;;
62927;SDS011;51070;52.236;-0.892;2023-07-13T02:43:54;5.60;;;2.80;;
62927;SDS011;51070;52.236;-0.892;2023-07-13T02:46:28;6.60;;;3.30;;
62927;SDS011;51070;52.236;-0.892;2023-07-13T02:48:54;5.00;;;2.60;;
62927;SDS011;51070;52.236;-0.892;2023-07-13T02:51:20;7.00;;;2.50;;
62927;SDS011;51070;52.236;-0.892;2023-07-13T02:53:45;5.20;;;2.40;;
62927;SDS011;51070;52.236;-0.892;2023-07-13T02:56:11;6.60;;;2.40;;
62927;SDS011;51070;52.236;-0.892;2023-07-13T02:58:37;6.80;;;2.00;;
62927;SDS011;51070;52.236;-0.892;2023-07-13T03:01:07;5.00;;;2.80;;
62927;SDS011;51070;52.236;-0.892;2023-07-13T03:03:34;6.50;;;2.50;;
62927;SDS011;51070;52.236;-0.892;2023-07-13T03:06:01;6.10;;;2.70;;
62927;SDS011;51070;52.236;-0.892;2023-07-13T03:08:30;4.80;;;2.60;;
62927;SDS011;51070;52.236;-0.892;2023-07-13T03:11:03;3.60;;;2.50;;
62927;SDS011;51070;52.236;-0.892;2023-07-13T03:13:30;5.20;;;2.70;;
62927;SDS011;51070;52.236;-0.892;2023-07-13T03:15:56;6.70;;;2.60;;
62927;SDS011;51070;52.236;-0.892;2023-07-13T03:18:22;10.10;;;3.70;;
62927;SDS011;51070;52.236;-0.892;2023-07-13T03:20:50;5.80;;;3.00;;
62927;SDS011;51070;52.236;-0.892;2023-07-13T03:23:16;5.60;;;2.90;;
62927;SDS011;51070;52.236;-0.892;2023-07-13T03:25:42;9.80;;;3.60;;
62927;SDS011;51070;52.236;-0.892;2023-07-13T03:28:08;4.90;;;2.10;;
62927;SDS011;51070;52.236;-0.892;2023-07-13T03:30:33;6.60;;;2.50;;
62927;SDS011;51070;52.236;-0.892;2023-07-13T03:32:58;6.10;;;3.80;;
62927;SDS011;51070;52.236;-0.892;2023-07-13T03:35:24;4.30;;;2.30;;
62927;SDS011;51070;52.236;-0.892;2023-07-13T03:37:49;6.90;;;2.70;;
62927;SDS011;51070;52.236;-0.892;2023-07-13T03:40:15;10.10;;;3.00;;
62927;SDS011;51070;52.236;-0.892;2023-07-13T03:42:40;10.00;;;3.20;;
62927;SDS011;51070;52.236;-0.892;2023-07-13T03:45:06;8.30;;;2.90;;
62927;SDS011;51070;52.236;-0.892;2023-07-13T03:47:32;11.80;;;3.20;;
62927;SDS011;51070;52.236;-0.892;2023-07-13T03:49:57;6.60;;;2.20;;
62927;SDS011;51070;52.236;-0.892;2023-07-13T03:52:22;5.80;;;2.40;;
62927;SDS011;51070;52.236;-0.892;2023-07-13T03:54:48;5.90;;;2.60;;
62927;SDS011;51070;52.236;-0.892;2023-07-13T03:57:13;6.80;;;2.60;;
62927;SDS011;51070;52.236;-0.892;2023-07-13T03:59:39;6.10;;;2.90;;
62927;SDS011;51070;52.236;-0.892;2023-07-13T04:02:04;6.10;;;3.00;;
62927;SDS011;51070;52.236;-0.892;2023-07-13T04:04:30;7.20;;;2.80;;
62927;SDS011;51070;52.236;-0.892;2023-07-13T04:06:56;5.10;;;3.50;;
62927;SDS011;51070;52.236;-0.892;2023-07-13T04:09:23;4.80;;;2.70;;
62927;SDS011;51070;52.236;-0.892;2023-07-13T04:11:49;6.20;;;3.10;;
62927;SDS011;51070;52.236;-0.892;2023-07-13T04:14:15;5.50;;;2.20;;
62927;SDS011;51070;52.236;-0.892;2023-07-13T04:16:41;5.10;;;2.20;;
62927;SDS011;51070;52.236;-0.892;2023-07-13T04:19:07;3.80;;;1.80;;
62927;SDS011;51070;52.236;-0.892;2023-07-13T04:21:35;8.30;;;2.60;;
62927;SDS011;51070;52.236;-0.892;2023-07-13T04:24:02;7.80;;;3.20;;
62927;SDS011;51070;52.236;-0.892;2023-07-13T04:26:29;4.50;;;2.10;;
62927;SDS011;51070;52.236;-0.892;2023-07-13T04:28:55;7.80;;;3.20;;
62927;SDS011;51070;52.236;-0.892;2023-07-13T04:31:21;10.60;;;2.80;;
62927;SDS011;51070;52.236;-0.892;2023-07-13T04:33:47;5.70;;;2.70;;
62927;SDS011;51070;52.236;-0.892;2023-07-13T04:36:14;8.00;;;2.90;;
62927;SDS011;51070;52.236;-0.892;2023-07-13T04:38:40;8.20;;;2.90;;
62927;SDS011;51070;52.236;-0.892;2023-07-13T04:41:06;13.40;;;3.60;;
62927;SDS011;51070;52.236;-0.892;2023-07-13T04:43:33;9.50;;;2.90;;
62927;SDS011;51070;52.236;-0.892;2023-07-13T04:46:06;8.10;;;2.60;;
62927;SDS011;51070;52.236;-0.892;2023-07-13T04:48:34;4.90;;;2.40;;
62927;SDS011;51070;52.236;-0.892;2023-07-13T04:51:00;3.70;;;2.40;;
62927;SDS011;51070;52.236;-0.892;2023-07-13T04:53:26;7.00;;;2.80;;
62927;SDS011;51070;52.236;-0.892;2023-07-13T04:55:53;7.20;;;2.70;;
62927;SDS011;51070;52.236;-0.892;2023-07-13T04:58:18;7.90;;;3.30;;
62927;SDS011;51070;52.236;-0.892;2023-07-13T05:00:44;5.90;;;2.40;;
62927;SDS011;51070;52.236;-0.892;2023-07-13T05:03:10;4.00;;;2.40;;
62927;SDS011;51070;52.236;-0.892;2023-07-13T05:05:36;3.30;;;2.20;;
62927;SDS011;51070;52.236;-0.892;2023-07-13T05:08:01;7.70;;;2.60;;
62927;SDS011;51070;52.236;-0.892;2023-07-13T05:10:27;6.00;;;2.30;;
62927;SDS011;51070;52.236;-0.892;2023-07-13T05:12:52;4.60;;;2.40;;
62927;SDS011;51070;52.236;-0.892;2023-07-13T05:15:22;7.00;;;2.70;;
62927;SDS011;51070;52.236;-0.892;2023-07-13T05:17:48;3.80;;;2.20;;
62927;SDS011;51070;52.236;-0.892;2023-07-13T05:20:14;5.30;;;2.40;;
62927;SDS011;51070;52.236;-0.892;2023-07-13T05:22:41;8.20;;;2.70;;
62927;SDS011;51070;52.236;-0.892;2023-07-13T05:25:07;4.60;;;3.00;;
62927;SDS011;51070;52.236;-0.892;2023-07-13T05:27:33;7.10;;;2.80;;
62927;SDS011;51070;52.236;-0.892;2023-07-13T05:30:00;5.10;;;3.10;;
62927;SDS011;51070;52.236;-0.892;2023-07-13T05:32:27;6.50;;;2.50;;
62927;SDS011;51070;52.236;-0.892;2023-07-13T05:34:52;4.70;;;1.90;;
62927;SDS011;51070;52.236;-0.892;2023-07-13T05:37:18;3.90;;;2.30;;
62927;SDS011;51070;52.236;-0.892;2023-07-13T05:39:43;7.40;;;2.10;;
62927;SDS011;51070;52.236;-0.892;2023-07-13T05:42:09;4.80;;;2.70;;
62927;SDS011;51070;52.236;-0.892;2023-07-13T05:44:34;5.80;;;2.60;;
62927;SDS011;51070;52.236;-0.892;2023-07-13T05:46:59;6.00;;;2.90;;
62927;SDS011;51070;52.236;-0.892;2023-07-13T05:49:25;6.80;;;2.70;;
62927;SDS011;51070;52.236;-0.892;2023-07-13T05:51:50;5.00;;;2.40;;
62927;SDS011;51070;52.236;-0.892;2023-07-13T05:54:16;5.90;;;2.60;;
62927;SDS011;51070;52.236;-0.892;2023-07-13T05:56:41;3.60;;;1.90;;
62927;SDS011;51070;52.236;-0.892;2023-07-13T05:59:07;7.40;;;2.30;;
62927;SDS011;51070;52.236;-0.892;2023-07-13T06:01:32;5.70;;;2.30;;
62927;SDS011;51070;52.236;-0.892;2023-07-13T06:03:58;4.20;;;1.70;;
62927;SDS011;51070;52.236;-0.892;2023-07-13T06:06:23;6.30;;;2.30;;
62927;SDS011;51070;52.236;-0.892;2023-07-13T06:08:49;4.50;;;1.80;;
62927;SDS011;51070;52.236;-0.892;2023-07-13T06:11:15;5.00;;;2.60;;
62927;SDS011;51070;52.236;-0.892;2023-07-13T06:13:42;6.20;;;2.60;;
62927;SDS011;51070;52.236;-0.892;2023-07-13T06:16:09;5.40;;;1.90;;
62927;SDS011;51070;52.236;-0.892;2023-07-13T06:18:35;4.80;;;2.00;;
62927;SDS011;51070;52.236;-0.892;2023-07-13T06:21:08;5.20;;;1.90;;
62927;SDS011;51070;52.236;-0.892;2023-07-13T06:23:36;4.70;;;1.90;;
62927;SDS011;51070;52.236;-0.892;2023-07-13T06:26:02;3.00;;;1.40;;
62927;SDS011;51070;52.236;-0.892;2023-07-13T06:28:29;4.50;;;1.90;;
62927;SDS011;51070;52.236;-0.892;2023-07-13T06:30:56;4.30;;;1.90;;
62927;SDS011;51070;52.236;-0.892;2023-07-13T06:33:22;4.20;;;1.70;;
62927;SDS011;51070;52.236;-0.892;2023-07-13T06:35:47;7.60;;;2.30;;
62927;SDS011;51070;52.236;-0.892;2023-07-13T06:38:13;6.70;;;2.10;;
62927;SDS011;51070;52.236;-0.892;2023-07-13T06:40:38;3.50;;;1.80;;
62927;SDS011;51070;52.236;-0.892;2023-07-13T06:43:04;3.20;;;1.70;;
62927;SDS011;51070;52.236;-0.892;2023-07-13T06:45:29;5.00;;;1.60;;
62927;SDS011;51070;52.236;-0.892;2023-07-13T06:47:54;5.70;;;2.00;;
62927;SDS011;51070;52.236;-0.892;2023-07-13T06:50:20;3.70;;;1.40;;
62927;SDS011;51070;52.236;-0.892;2023-07-13T06:52:45;3.30;;;1.50;;
62927;SDS011;51070;52.236;-0.892;2023-07-13T06:55:10;3.70;;;1.80;;
62927;SDS011;51070;52.236;-0.892;2023-07-13T06:57:36;2.80;;;1.90;;
62927;SDS011;51070;52.236;-0.892;2023-07-13T07:00:01;2.70;;;1.50;;
62927;SDS011;51070;52.236;-0.892;2023-07-13T07:02:27;3.60;;;1.60;;
62927;SDS011;51070;52.236;-0.892;2023-07-13T07:04:52;4.90;;;1.90;;
62927;SDS011;51070;52.236;-0.892;2023-07-13T07:07:19;3.40;;;1.40;;
62927;SDS011;51070;52.236;-0.892;2023-07-13T07:09:44;5.00;;;1.40;;
62927;SDS011;51070;52.236;-0.892;2023-07-13T07:12:10;3.30;;;1.40;;
62927;SDS011;51070;52.236;-0.892;2023-07-13T07:14:35;3.60;;;1.40;;
62927;SDS011;51070;52.236;-0.892;2023-07-13T07:17:01;3.00;;;1.60;;
62927;SDS011;51070;52.236;-0.892;2023-07-13T07:19:27;4.00;;;1.60;;
62927;SDS011;51070;52.236;-0.892;2023-07-13T07:21:54;3.40;;;1.80;;
62927;SDS011;51070;52.236;-0.892;2023-07-13T07:24:20;4.40;;;1.60;;
62927;SDS011;51070;52.236;-0.892;2023-07-13T07:26:45;6.10;;;1.60;;
62927;SDS011;51070;52.236;-0.892;2023-07-13T07:29:10;4.30;;;1.70;;
62927;SDS011;51070;52.236;-0.892;2023-07-13T07:31:36;4.50;;;1.80;;
62927;SDS011;51070;52.236;-0.892;2023-07-13T07:34:02;6.60;;;1.40;;
62927;SDS011;51070;52.236;-0.892;2023-07-13T07:36:28;3.30;;;1.30;;
62927;SDS011;51070;52.236;-0.892;2023-07-13T07:38:53;3.90;;;1.50;;
62927;SDS011;51070;52.236;-0.892;2023-07-13T07:41:19;2.50;;;1.00;;
62927;SDS011;51070;52.236;-0.892;2023-07-13T07:43:44;2.30;;;1.30;;
62927;SDS011;51070;52.236;-0.892;2023-07-13T07:46:09;5.30;;;1.80;;
62927;SDS011;51070;52.236;-0.892;2023-07-13T07:48:35;2.80;;;1.40;;
62927;SDS011;51070;52.236;-0.892;2023-07-13T07:51:00;2.80;;;1.40;;
62927;SDS011;51070;52.236;-0.892;2023-07-13T07:53:26;5.00;;;1.40;;
62927;SDS011;51070;52.236;-0.892;2023-07-13T07:55:51;3.10;;;1.40;;
62927;SDS011;51070;52.236;-0.892;2023-07-13T07:58:17;7.00;;;1.80;;
62927;SDS011;51070;52.236;-0.892;2023-07-13T08:00:42;3.80;;;1.40;;
62927;SDS011;51070;52.236;-0.892;2023-07-13T08:03:07;5.00;;;1.50;;
62927;SDS011;51070;52.236;-0.892;2023-07-13T08:05:34;4.00;;;1.70;;
62927;SDS011;51070;52.236;-0.892;2023-07-13T08:08:01;2.50;;;1.20;;
62927;SDS011;51070;52.236;-0.892;2023-07-13T08:10:26;4.10;;;1.40;;
62927;SDS011;51070;52.236;-0.892;2023-07-13T08:12:52;2.50;;;1.50;;
62927;SDS011;51070;52.236;-0.892;2023-07-13T08:15:17;5.40;;;1.20;;
62927;SDS011;51070;52.236;-0.892;2023-07-13T08:17:45;3.10;;;1.50;;
62927;SDS011;51070;52.236;-0.892;2023-07-13T08:20:14;3.70;;;1.40;;
62927;SDS011;51070;52.236;-0.892;2023-07-13T08:22:40;2.20;;;1.10;;
62927;SDS011;51070;52.236;-0.892;2023-07-13T08:25:06;2.50;;;1.50;;
62927;SDS011;51070;52.236;-0.892;2023-07-13T08:27:32;6.60;;;1.50;;
62927;SDS011;51070;52.236;-0.892;2023-07-13T08:29:58;2.80;;;1.30;;
62927;SDS011;51070;52.236;-0.892;2023-07-13T08:32:23;5.80;;;1.70;;
62927;SDS011;51070;52.236;-0.892;2023-07-13T08:34:49;5.00;;;1.40;;
62927;SDS011;51070;52.236;-0.892;2023-07-13T08:37:15;2.80;;;1.20;;
62927;SDS011;51070;52.236;-0.892;2023-07-13T08:39:42;3.10;;;1.30;;
62927;SDS011;51070;52.236;-0.892;2023-07-13T08:45:19;5.20;;;1.60;;
62927;SDS011;51070;52.236;-0.892;2023-07-13T08:50:59;3.70;;;1.30;;
62927;SDS011;51070;52.236;-0.892;2023-07-13T08:53:36;5.40;;;1.70;;
62927;SDS011;51070;52.236;-0.892;2023-07-13T08:56:09;3.40;;;1.70;;
62927;SDS011;51070;52.236;-0.892;2023-07-13T08:58:44;2.50;;;1.50;;
62927;SDS011;51070;52.236;-0.892;2023-07-13T09:01:32;3.40;;;1.30;;
62927;SDS011;51070;52.236;-0.892;2023-07-13T09:04:11;2.90;;;1.40;;
62927;SDS011;51070;52.236;-0.892;2023-07-13T09:06:55;2.90;;;1.30;;
62927;SDS011;51070;52.236;-0.892;2023-07-13T09:12:00;2.50;;;1.10;;
62927;SDS011;51070;52.236;-0.892;2023-07-13T09:14:42;2.70;;;1.60;;
62927;SDS011;51070;52.236;-0.892;2023-07-13T09:17:14;3.20;;;1.50;;
62927;SDS011;51070;52.236;-0.892;2023-07-13T09:22:52;3.30;;;1.30;;
62927;SDS011;51070;52.236;-0.892;2023-07-13T09:25:24;5.80;;;1.60;;
62927;SDS011;51070;52.236;-0.892;2023-07-13T09:27:58;3.60;;;1.50;;
62927;SDS011;51070;52.236;-0.892;2023-07-13T09:30:36;3.10;;;1.50;;
62927;SDS011;51070;52.236;-0.892;2023-07-13T09:33:22;3.50;;;1.50;;
62927;SDS011;51070;52.236;-0.892;2023-07-13T09:35:48;2.20;;;1.30;;
62927;SDS011;51070;52.236;-0.892;2023-07-13T09:38:18;5.70;;;1.60;;
62927;SDS011;51070;52.236;-0.892;2023-07-13T09:41:01;2.60;;;1.20;;
62927;SDS011;51070;52.236;-0.892;2023-07-13T09:46:38;5.00;;;1.50;;
62927;SDS011;51070;52.236;-0.892;2023-07-13T09:49:09;3.30;;;1.60;;
62927;SDS011;51070;52.236;-0.892;2023-07-13T09:51:36;2.80;;;1.40;;
62927;SDS011;51070;52.236;-0.892;2023-07-13T09:54:03;4.90;;;1.70;;
62927;SDS011;51070;52.236;-0.892;2023-07-13T09:56:28;2.60;;;1.10;;
62927;SDS011;51070;52.236;-0.892;2023-07-13T09:58:55;2.50;;;1.40;;
62927;SDS011;51070;52.236;-0.892;2023-07-13T10:01:32;3.90;;;1.50;;
62927;SDS011;51070;52.236;-0.892;2023-07-13T10:04:00;4.00;;;1.70;;
62927;SDS011;51070;52.236;-0.892;2023-07-13T10:06:26;4.10;;;1.30;;
62927;SDS011;51070;52.236;-0.892;2023-07-13T10:08:52;3.70;;;1.50;;
62927;SDS011;51070;52.236;-0.892;2023-07-13T10:11:19;2.50;;;1.20;;
62927;SDS011;51070;52.236;-0.892;2023-07-13T10:13:54;2.00;;;1.50;;
62927;SDS011;51070;52.236;-0.892;2023-07-13T10:16:22;2.60;;;1.70;;
62927;SDS011;51070;52.236;-0.892;2023-07-13T10:18:50;2.30;;;1.40;;
62927;SDS011;51070;52.236;-0.892;2023-07-13T10:21:20;4.30;;;1.60;;
62927;SDS011;51070;52.236;-0.892;2023-07-13T10:23:54;2.60;;;1.30;;
62927;SDS011;51070;52.236;-0.892;2023-07-13T10:26:26;2.60;;;1.50;;
62927;SDS011;51070;52.236;-0.892;2023-07-13T10:28:57;3.30;;;1.40;;
62927;SDS011;51070;52.236;-0.892;2023-07-13T10:31:27;3.90;;;1.40;;
62927;SDS011;51070;52.236;-0.892;2023-07-13T10:33:52;3.10;;;1.30;;
62927;SDS011;51070;52.236;-0.892;2023-07-13T10:38:50;2.60;;;1.30;;
62927;SDS011;51070;52.236;-0.892;2023-07-13T10:41:19;3.70;;;1.50;;
62927;SDS011;51070;52.236;-0.892;2023-07-13T10:43:49;5.20;;;1.40;;
62927;SDS011;51070;52.236;-0.892;2023-07-13T10:46:18;3.50;;;1.60;;
62927;SDS011;51070;52.236;-0.892;2023-07-13T10:48:46;3.10;;;1.90;;
62927;SDS011;51070;52.236;-0.892;2023-07-13T10:51:17;2.60;;;1.30;;
62927;SDS011;51070;52.236;-0.892;2023-07-13T10:53:48;2.20;;;1.20;;
62927;SDS011;51070;52.236;-0.892;2023-07-13T10:56:39;2.60;;;1.50;;
62927;SDS011;51070;52.236;-0.892;2023-07-13T11:04:38;3.80;;;1.60;;
62927;SDS011;51070;52.236;-0.892;2023-07-13T11:07:16;2.60;;;1.40;;
62927;SDS011;51070;52.236;-0.892;2023-07-13T11:09:49;3.40;;;1.60;;
62927;SDS011;51070;52.236;-0.892;2023-07-13T11:22:42;4.00;;;1.70;;
62927;SDS011;51070;52.236;-0.892;2023-07-13T11:27:45;2.50;;;1.70;;
62927;SDS011;51070;52.236;-0.892;2023-07-13T11:30:23;2.60;;;1.70;;
62927;SDS011;51070;52.236;-0.892;2023-07-13T11:33:03;2.40;;;1.20;;
62927;SDS011;51070;52.236;-0.892;2023-07-13T11:35:38;2.70;;;1.50;;
62927;SDS011;51070;52.236;-0.892;2023-07-13T11:38:20;4.30;;;2.00;;
62927;SDS011;51070;52.236;-0.892;2023-07-13T11:41:10;3.30;;;1.50;;
62927;SDS011;51070;52.236;-0.892;2023-07-13T11:43:41;2.60;;;1.60;;
62927;SDS011;51070;52.236;-0.892;2023-07-13T11:46:20;2.50;;;1.50;;
62927;SDS011;51070;52.236;-0.892;2023-07-13T11:48:51;3.50;;;1.80;;
62927;SDS011;51070;52.236;-0.892;2023-07-13T11:51:22;3.40;;;1.60;;
62927;SDS011;51070;52.236;-0.892;2023-07-13T11:53:53;4.00;;;1.70;;
62927;SDS011;51070;52.236;-0.892;2023-07-13T11:56:20;2.00;;;1.70;;
62927;SDS011;51070;52.236;-0.892;2023-07-13T11:58:48;3.70;;;2.00;;
62927;SDS011;51070;52.236;-0.892;2023-07-13T12:01:24;2.90;;;1.70;;
62927;SDS011;51070;52.236;-0.892;2023-07-13T12:03:54;2.00;;;1.60;;
62927;SDS011;51070;52.236;-0.892;2023-07-13T12:08:58;2.90;;;1.60;;
62927;SDS011;51070;52.236;-0.892;2023-07-13T12:11:26;3.10;;;1.50;;
62927;SDS011;51070;52.236;-0.892;2023-07-13T12:13:52;4.30;;;1.60;;
62927;SDS011;51070;52.236;-0.892;2023-07-13T12:16:31;3.20;;;1.80;;
62927;SDS011;51070;52.236;-0.892;2023-07-13T12:19:01;3.40;;;1.70;;
62927;SDS011;51070;52.236;-0.892;2023-07-13T12:21:38;2.10;;;1.60;;
62927;SDS011;51070;52.236;-0.892;2023-07-13T12:24:05;1.60;;;1.50;;
62927;SDS011;51070;52.236;-0.892;2023-07-13T12:26:40;2.40;;;1.50;;
62927;SDS011;51070;52.236;-0.892;2023-07-13T12:29:06;3.20;;;1.60;;
62927;SDS011;51070;52.236;-0.892;2023-07-13T12:31:46;2.40;;;1.40;;
62927;SDS011;51070;52.236;-0.892;2023-07-13T12:34:20;4.00;;;1.80;;
62927;SDS011;51070;52.236;-0.892;2023-07-13T12:39:17;3.20;;;1.50;;
62927;SDS011;51070;52.236;-0.892;2023-07-13T12:41:46;2.70;;;1.40;;
62927;SDS011;51070;52.236;-0.892;2023-07-13T12:46:50;3.90;;;1.40;;
62927;SDS011;51070;52.236;-0.892;2023-07-13T12:49:40;2.60;;;1.60;;
62927;SDS011;51070;52.236;-0.892;2023-07-13T12:52:15;2.60;;;1.60;;
62927;SDS011;51070;52.236;-0.892;2023-07-13T12:54:52;6.20;;;2.00;;
62927;SDS011;51070;52.236;-0.892;2023-07-13T12:57:25;3.50;;;1.50;;
62927;SDS011;51070;52.236;-0.892;2023-07-13T12:59:52;3.20;;;1.90;;
62927;SDS011;51070;52.236;-0.892;2023-07-13T13:02:27;3.10;;;1.60;;
62927;SDS011;51070;52.236;-0.892;2023-07-13T13:04:56;2.20;;;1.60;;
62927;SDS011;51070;52.236;-0.892;2023-07-13T13:07:23;2.90;;;1.70;;
62927;SDS011;51070;52.236;-0.892;2023-07-13T13:09:49;2.00;;;1.50;;
62927;SDS011;51070;52.236;-0.892;2023-07-13T13:12:15;5.80;;;2.40;;
62927;SDS011;51070;52.236;-0.892;2023-07-13T13:14:42;6.70;;;2.00;;
62927;SDS011;51070;52.236;-0.892;2023-07-13T13:17:16;5.90;;;2.50;;
62927;SDS011;51070;52.236;-0.892;2023-07-13T13:19:49;3.00;;;2.30;;
62927;SDS011;51070;52.236;-0.892;2023-07-13T13:22:18;4.20;;;2.60;;
62927;SDS011;51070;52.236;-0.892;2023-07-13T13:24:43;3.40;;;2.40;;
62927;SDS011;51070;52.236;-0.892;2023-07-13T13:27:13;2.70;;;1.70;;
62927;SDS011;51070;52.236;-0.892;2023-07-13T13:29:42;4.00;;;1.80;;
62927;SDS011;51070;52.236;-0.892;2023-07-13T13:32:09;4.70;;;2.10;;
62927;SDS011;51070;52.236;-0.892;2023-07-13T13:34:37;4.00;;;2.10;;
62927;SDS011;51070;52.236;-0.892;2023-07-13T13:37:03;3.50;;;2.00;;
62927;SDS011;51070;52.236;-0.892;2023-07-13T13:39:32;4.20;;;2.10;;
62927;SDS011;51070;52.236;-0.892;2023-07-13T13:41:59;4.50;;;2.40;;
62927;SDS011;51070;52.236;-0.892;2023-07-13T13:44:25;3.70;;;2.20;;
62927;SDS011;51070;52.236;-0.892;2023-07-13T13:46:51;4.20;;;2.10;;
62927;SDS011;51070;52.236;-0.892;2023-07-13T13:49:20;5.00;;;2.40;;
62927;SDS011;51070;52.236;-0.892;2023-07-13T13:51:49;4.50;;;2.40;;
62927;SDS011;51070;52.236;-0.892;2023-07-13T13:54:16;3.00;;;2.10;;
62927;SDS011;51070;52.236;-0.892;2023-07-13T13:56:43;3.70;;;2.40;;
62927;SDS011;51070;52.236;-0.892;2023-07-13T13:59:11;3.90;;;2.30;;
62927;SDS011;51070;52.236;-0.892;2023-07-13T14:01:37;3.90;;;2.70;;
62927;SDS011;51070;52.236;-0.892;2023-07-13T14:04:04;4.90;;;2.70;;
62927;SDS011;51070;52.236;-0.892;2023-07-13T14:06:31;5.50;;;2.90;;
62927;SDS011;51070;52.236;-0.892;2023-07-13T14:08:59;4.50;;;2.50;;
62927;SDS011;51070;52.236;-0.892;2023-07-13T14:11:26;5.50;;;3.00;;
62927;SDS011;51070;52.236;-0.892;2023-07-13T14:13:55;8.90;;;6.10;;
62927;SDS011;51070;52.236;-0.892;2023-07-13T14:16:25;8.60;;;4.80;;
62927;SDS011;51070;52.236;-0.892;2023-07-13T14:18:54;8.10;;;4.70;;
62927;SDS011;51070;52.236;-0.892;2023-07-13T14:21:23;4.00;;;2.60;;
62927;SDS011;51070;52.236;-0.892;2023-07-13T14:23:49;5.30;;;3.20;;
62927;SDS011;51070;52.236;-0.892;2023-07-13T14:26:19;5.40;;;2.70;;
62927;SDS011;51070;52.236;-0.892;2023-07-13T14:28:48;5.80;;;3.40;;
62927;SDS011;51070;52.236;-0.892;2023-07-13T14:31:16;6.50;;;3.60;;
62927;SDS011;51070;52.236;-0.892;2023-07-13T14:33:43;3.70;;;2.50;;
62927;SDS011;51070;52.236;-0.892;2023-07-13T14:36:16;4.40;;;2.60;;
62927;SDS011;51070;52.236;-0.892;2023-07-13T14:38:43;3.00;;;1.80;;
62927;SDS011;51070;52.236;-0.892;2023-07-13T14:41:08;3.00;;;2.50;;
62927;SDS011;51070;52.236;-0.892;2023-07-13T14:43:34;3.90;;;2.20;;
62927;SDS011;51070;52.236;-0.892;2023-07-13T14:45:59;4.30;;;2.60;;
62927;SDS011;51070;52.236;-0.892;2023-07-13T14:48:24;4.20;;;2.40;;
62927;SDS011;51070;52.236;-0.892;2023-07-13T14:50:53;2.80;;;1.90;;
62927;SDS011;51070;52.236;-0.892;2023-07-13T14:53:21;2.60;;;1.90;;
62927;SDS011;51070;52.236;-0.892;2023-07-13T14:55:47;2.80;;;1.90;;
62927;SDS011;51070;52.236;-0.892;2023-07-13T14:58:12;3.40;;;1.70;;
62927;SDS011;51070;52.236;-0.892;2023-07-13T15:00:39;3.00;;;1.80;;
62927;SDS011;51070;52.236;-0.892;2023-07-13T15:03:05;3.20;;;1.80;;
62927;SDS011;51070;52.236;-0.892;2023-07-13T15:05:36;3.20;;;1.60;;
62927;SDS011;51070;52.236;-0.892;2023-07-13T15:08:02;2.80;;;1.40;;
62927;SDS011;51070;52.236;-0.892;2023-07-13T15:10:30;2.10;;;1.80;;
62927;SDS011;51070;52.236;-0.892;2023-07-13T15:13:01;3.20;;;1.70;;
62927;SDS011;51070;52.236;-0.892;2023-07-13T15:15:49;2.10;;;1.40;;
62927;SDS011;51070;52.236;-0.892;2023-07-13T15:18:20;2.10;;;1.70;;
62927;SDS011;51070;52.236;-0.892;2023-07-13T15:20:48;1.80;;;1.30;;
62927;SDS011;51070;52.236;-0.892;2023-07-13T15:23:15;2.40;;;1.50;;